Time;durP1;ratioP1;P1;durP2;ratioP2;P2;SDS_P1;SDS_P2;PMS_P1;PMS_P2;Temp;Humidity;BMP_temperature;BMP_pressure;BME280_temperature;BME280_humidity;BME280_pressure;Samples;Min_cycle;Max_cycle;Signal;HPM_P1;HPM_P2
2023/01/08 00:00:26;;;;;;;;;;;8.00;99.90;;;;;;5069530;28;19920;-78
2023/01/08 00:02:51;;;;;;;;;;;8.00;99.90;;;;;;5068205;28;20007;-78
2023/01/08 00:05:17;;;;;;;;;;;8.00;99.90;;;;;;5069653;28;19915;-83
2023/01/08 00:07:42;;;;;;;;;;;8.00;99.90;;;;;;5070029;28;19908;-78
2023/01/08 00:10:08;;;;;;;;;;;8.00;99.90;;;;;;5069644;28;19908;-78
2023/01/08 00:12:34;;;;;;;;;;;7.90;99.90;;;;;;5069714;28;19983;-77
2023/01/08 00:14:59;;;;;;;;;;;7.90;99.90;;;;;;5070118;28;20373;-78
2023/01/08 00:17:25;;;;;;;;;;;7.90;99.90;;;;;;5069264;28;19926;-78
2023/01/08 00:19:50;;;;;;;;;;;7.90;99.90;;;;;;5057007;28;19916;-81
2023/01/08 00:22:16;;;;;;;;;;;7.90;99.90;;;;;;5069319;28;20270;-84
2023/01/08 00:24:41;;;;;;;;;;;8.00;99.90;;;;;;5070742;28;19936;-77
2023/01/08 00:27:07;;;;;;;;;;;8.10;99.90;;;;;;5073887;28;20361;-77
2023/01/08 00:29:32;;;;;;;;;;;8.00;99.90;;;;;;5072878;28;19916;-77
2023/01/08 00:31:58;;;;;;;;;;;8.00;99.90;;;;;;5071787;28;19915;-80
2023/01/08 00:34:24;;;;;;;;;;;8.00;99.90;;;;;;5072459;28;19916;-77
2023/01/08 00:36:49;;;;;;;;;;;8.00;99.90;;;;;;5073166;28;19995;-79
2023/01/08 00:39:15;;;;;;;;;;;8.00;99.90;;;;;;5072930;28;19935;-77
2023/01/08 00:41:43;;;;;;;;;;;8.10;99.90;;;;;;5072504;28;19913;-77
2023/01/08 00:44:08;;;;;;;;;;;8.00;99.90;;;;;;5072290;28;20381;-78
2023/01/08 00:46:34;;;;;;;;;;;8.00;99.90;;;;;;5072920;28;19908;-78
2023/01/08 00:48:59;;;;;;;;;;;8.10;99.90;;;;;;5072566;28;19939;-76
2023/01/08 00:51:25;;;;;;;;;;;8.00;99.90;;;;;;5072834;28;19928;-77
2023/01/08 00:53:51;;;;;;;;;;;8.00;99.90;;;;;;5069523;28;20294;-77
2023/01/08 00:56:16;;;;;;;;;;;8.00;99.90;;;;;;5063048;28;19912;-82
2023/01/08 00:58:42;;;;;;;;;;;8.00;99.90;;;;;;5072720;28;20061;-76
2023/01/08 01:01:08;;;;;;;;;;;8.00;99.90;;;;;;5072881;28;19913;-77
2023/01/08 01:03:34;;;;;;;;;;;8.00;99.90;;;;;;5071108;28;19908;-77
2023/01/08 01:06:03;;;;;;;;;;;8.00;99.90;;;;;;5072455;28;20273;-77
2023/01/08 01:08:29;;;;;;;;;;;8.00;99.90;;;;;;5072435;28;19908;-79
2023/01/08 01:10:55;;;;;;;;;;;8.00;99.90;;;;;;5073216;28;19962;-79
2023/01/08 01:13:20;;;;;;;;;;;8.00;99.90;;;;;;5071374;28;19989;-81
2023/01/08 01:15:55;;;;;;;;;;;8.00;99.90;;;;;;5073560;28;19946;-79
2023/01/08 01:18:20;;;;;;;;;;;8.00;99.90;;;;;;5072782;28;19932;-80
2023/01/08 01:20:46;;;;;;;;;;;7.90;99.90;;;;;;5071940;28;19928;-79
2023/01/08 01:23:11;;;;;;;;;;;7.90;99.90;;;;;;5073214;28;19913;-79
2023/01/08 01:25:37;;;;;;;;;;;7.90;99.90;;;;;;5072789;28;19921;-78
2023/01/08 01:28:02;;;;;;;;;;;7.90;99.90;;;;;;5073127;28;19909;-78
2023/01/08 01:30:28;;;;;;;;;;;7.90;99.90;;;;;;5072411;28;20346;-79
2023/01/08 01:32:54;;;;;;;;;;;7.90;99.90;;;;;;5071761;28;20362;-79
2023/01/08 01:35:19;;;;;;;;;;;7.90;99.90;;;;;;5072752;28;19960;-83
2023/01/08 01:37:45;;;;;;;;;;;7.90;99.90;;;;;;5071918;28;19912;-79
2023/01/08 01:40:10;;;;;;;;;;;7.90;99.90;;;;;;5072199;28;20292;-79
2023/01/08 01:42:39;;;;;;;;;;;7.90;99.90;;;;;;5072530;28;19970;-80
2023/01/08 01:45:16;;;;;;;;;;;7.90;99.90;;;;;;5072948;28;19992;-80
2023/01/08 01:47:44;;;;;;;;;;;7.90;99.90;;;;;;5072553;28;19908;-80
2023/01/08 01:50:18;;;;;;;;;;;7.90;99.90;;;;;;5072735;28;19935;-79
2023/01/08 01:53:04;;;;;;;;;;;7.90;99.90;;;;;;5071100;28;20332;-79
2023/01/08 01:55:30;;;;;;;;;;;7.80;99.90;;;;;;5071585;28;19909;-79
2023/01/08 01:58:16;;;;;;;;;;;7.90;99.90;;;;;;5072648;28;20349;-79
2023/01/08 02:00:42;;;;;;;;;;;7.80;99.90;;;;;;5072140;28;19935;-79
2023/01/08 02:03:09;;;;;;;;;;;7.90;99.90;;;;;;5072821;28;20265;-79
2023/01/08 02:05:38;;;;;;;;;;;7.80;99.90;;;;;;5070985;28;19959;-79
2023/01/08 02:08:11;;;;;;;;;;;7.80;99.90;;;;;;5053094;28;19909;-79
2023/01/08 02:11:02;;;;;;;;;;;7.70;99.90;;;;;;5052516;28;19909;-80
2023/01/08 02:13:32;;;;;;;;;;;7.70;99.90;;;;;;5052408;28;20054;-80
2023/01/08 02:16:04;;;;;;;;;;;7.70;99.90;;;;;;5052567;28;19908;-79
2023/01/08 02:18:44;;;;;;;;;;;7.60;99.90;;;;;;5052067;28;19982;-80
2023/01/08 02:21:13;;;;;;;;;;;7.60;99.90;;;;;;5052746;28;19916;-79
2023/01/08 02:23:57;;;;;;;;;;;7.70;99.90;;;;;;5052583;28;20211;-79
2023/01/08 02:26:26;;;;;;;;;;;7.60;99.90;;;;;;5057631;28;19980;-87
2023/01/08 02:28:58;;;;;;;;;;;7.60;99.90;;;;;;5067475;28;19909;-80
2023/01/08 02:31:25;;;;;;;;;;;7.60;99.90;;;;;;5064661;28;20050;-83
2023/01/08 02:33:50;;;;;;;;;;;7.50;99.90;;;;;;5063233;28;19920;-79
2023/01/08 02:36:22;;;;;;;;;;;7.60;99.90;;;;;;5067481;28;20250;-79
2023/01/08 02:39:03;;;;;;;;;;;7.50;99.90;;;;;;5060902;28;19931;-78
2023/01/08 02:41:35;;;;;;;;;;;7.50;99.90;;;;;;5060425;28;19912;-80
2023/01/08 02:44:01;;;;;;;;;;;7.50;99.90;;;;;;5081064;28;19931;-79
2023/01/08 02:46:31;;;;;;;;;;;7.50;99.90;;;;;;5082654;28;19920;-78
2023/01/08 02:49:08;;;;;;;;;;;7.40;99.90;;;;;;5072113;28;19938;-80
2023/01/08 02:51:43;;;;;;;;;;;7.40;99.90;;;;;;5076771;28;19940;-80
2023/01/08 02:54:11;;;;;;;;;;;7.40;99.90;;;;;;5074720;28;20011;-80
2023/01/08 02:56:43;;;;;;;;;;;7.40;99.90;;;;;;5073776;28;19999;-80
2023/01/08 02:59:09;;;;;;;;;;;7.40;99.90;;;;;;5075296;28;20341;-79
2023/01/08 03:01:35;;;;;;;;;;;7.40;99.90;;;;;;5073621;28;20006;-79
2023/01/08 03:04:05;;;;;;;;;;;7.30;99.90;;;;;;5073119;28;19909;-79
2023/01/08 03:06:31;;;;;;;;;;;7.30;99.90;;;;;;5074663;28;19912;-79
2023/01/08 03:08:57;;;;;;;;;;;7.30;99.90;;;;;;5072749;28;20223;-79
2023/01/08 03:11:26;;;;;;;;;;;7.20;99.90;;;;;;5075003;28;19908;-78
2023/01/08 03:13:58;;;;;;;;;;;7.20;99.90;;;;;;5074102;28;20011;-79
2023/01/08 03:16:27;;;;;;;;;;;7.20;99.90;;;;;;5073733;28;19953;-79
2023/01/08 03:18:56;;;;;;;;;;;7.20;99.90;;;;;;5061269;28;20262;-79
2023/01/08 03:21:22;;;;;;;;;;;7.20;99.90;;;;;;5053000;28;19913;-79
2023/01/08 03:23:48;;;;;;;;;;;7.20;99.90;;;;;;5053286;28;19909;-79
2023/01/08 03:26:17;;;;;;;;;;;7.20;99.90;;;;;;5054011;28;19920;-79
2023/01/08 03:28:47;;;;;;;;;;;7.10;99.90;;;;;;5052575;28;19917;-79
2023/01/08 03:31:14;;;;;;;;;;;7.10;99.90;;;;;;5053189;28;19916;-79
2023/01/08 03:33:42;;;;;;;;;;;7.10;99.90;;;;;;5052809;28;19913;-79
2023/01/08 03:36:10;;;;;;;;;;;7.10;99.90;;;;;;5053442;28;20302;-79
2023/01/08 03:38:39;;;;;;;;;;;7.10;99.90;;;;;;5052280;28;19913;-79
2023/01/08 03:41:09;;;;;;;;;;;7.10;99.90;;;;;;5052745;28;20278;-80
2023/01/08 03:43:35;;;;;;;;;;;7.10;99.90;;;;;;5052949;28;19990;-79
2023/01/08 03:46:02;;;;;;;;;;;7.10;99.90;;;;;;5051595;28;20258;-79
2023/01/08 03:48:29;;;;;;;;;;;7.10;99.90;;;;;;5051129;28;19909;-85
2023/01/08 03:50:54;;;;;;;;;;;7.10;99.90;;;;;;5052170;28;19931;-78
2023/01/08 03:53:20;;;;;;;;;;;7.10;99.90;;;;;;5051979;28;20281;-79
2023/01/08 03:55:45;;;;;;;;;;;7.20;99.90;;;;;;5050943;28;19921;-79
2023/01/08 03:58:11;;;;;;;;;;;7.20;99.90;;;;;;5051695;28;19912;-79
2023/01/08 04:00:37;;;;;;;;;;;7.20;99.90;;;;;;5054041;28;19913;-79
2023/01/08 04:03:03;;;;;;;;;;;7.20;99.90;;;;;;5054364;28;19915;-79
2023/01/08 04:05:28;;;;;;;;;;;7.20;99.90;;;;;;5074449;28;19958;-84
2023/01/08 04:07:55;;;;;;;;;;;7.20;99.90;;;;;;5075405;28;19908;-79
2023/01/08 04:10:21;;;;;;;;;;;7.20;99.90;;;;;;5075761;28;19912;-79
2023/01/08 04:12:47;;;;;;;;;;;7.20;99.90;;;;;;5074661;28;19909;-78
2023/01/08 04:15:12;;;;;;;;;;;7.20;99.90;;;;;;5075081;28;20253;-79
2023/01/08 04:17:38;;;;;;;;;;;7.20;99.90;;;;;;5074100;28;19909;-79
2023/01/08 04:20:04;;;;;;;;;;;7.10;99.90;;;;;;5074046;28;19939;-80
2023/01/08 04:22:29;;;;;;;;;;;7.10;99.90;;;;;;5074385;28;20258;-85
2023/01/08 04:24:55;;;;;;;;;;;7.10;99.90;;;;;;5074179;28;19908;-79
2023/01/08 04:27:20;;;;;;;;;;;7.10;99.90;;;;;;5074224;28;20368;-79
2023/01/08 04:29:46;;;;;;;;;;;7.10;99.90;;;;;;5070669;28;19921;-79
2023/01/08 04:32:11;;;;;;;;;;;7.10;99.90;;;;;;5054511;28;19948;-79
2023/01/08 04:34:37;;;;;;;;;;;7.20;99.90;;;;;;5052128;28;19913;-80
2023/01/08 04:37:03;;;;;;;;;;;7.10;99.90;;;;;;5054428;28;19937;-79
2023/01/08 04:39:28;;;;;;;;;;;7.10;99.90;;;;;;5052679;28;20236;-79
2023/01/08 04:41:54;;;;;;;;;;;7.10;99.90;;;;;;5053522;28;20397;-79
2023/01/08 04:44:19;;;;;;;;;;;7.10;99.90;;;;;;5054320;28;19913;-79
2023/01/08 04:46:45;;;;;;;;;;;7.20;99.90;;;;;;5053455;28;20007;-79
2023/01/08 04:49:11;;;;;;;;;;;7.20;99.90;;;;;;5053782;28;19921;-79
2023/01/08 04:51:36;;;;;;;;;;;7.20;99.90;;;;;;5053769;28;20330;-79
2023/01/08 04:54:02;;;;;;;;;;;7.10;99.90;;;;;;5053619;28;19913;-79
2023/01/08 04:56:28;;;;;;;;;;;7.10;99.90;;;;;;5052354;28;19916;-78
2023/01/08 04:58:54;;;;;;;;;;;7.10;99.90;;;;;;5053241;28;20329;-79
2023/01/08 05:01:21;;;;;;;;;;;7.10;99.90;;;;;;5053769;28;19947;-79
2023/01/08 05:03:47;;;;;;;;;;;7.20;99.90;;;;;;5051719;28;19955;-79
2023/01/08 05:06:12;;;;;;;;;;;7.10;99.90;;;;;;5059532;28;19960;-79
2023/01/08 05:08:38;;;;;;;;;;;7.20;99.90;;;;;;5073584;28;19908;-79
2023/01/08 05:11:04;;;;;;;;;;;7.10;99.90;;;;;;5072746;28;20361;-79
2023/01/08 05:13:29;;;;;;;;;;;7.20;99.90;;;;;;5073672;28;20003;-78
2023/01/08 05:15:58;;;;;;;;;;;7.30;99.90;;;;;;5056742;28;20327;-78
2023/01/08 05:18:23;;;;;;;;;;;7.30;99.90;;;;;;5053280;28;20241;-78
2023/01/08 05:20:49;;;;;;;;;;;7.30;99.90;;;;;;5052975;28;19944;-79
2023/01/08 05:23:14;;;;;;;;;;;7.30;99.90;;;;;;5052847;28;19913;-79
2023/01/08 05:25:40;;;;;;;;;;;7.40;99.90;;;;;;5052770;28;20023;-78
2023/01/08 05:28:05;;;;;;;;;;;7.40;99.90;;;;;;5053011;28;19909;-78
2023/01/08 05:30:31;;;;;;;;;;;7.40;99.90;;;;;;5053019;28;19966;-78
2023/01/08 05:32:57;;;;;;;;;;;7.40;99.90;;;;;;5052900;28;19936;-78
2023/01/08 05:35:22;;;;;;;;;;;7.50;99.90;;;;;;5053007;28;19999;-78
2023/01/08 05:37:48;;;;;;;;;;;7.50;99.90;;;;;;5052697;28;19974;-79
2023/01/08 05:40:13;;;;;;;;;;;7.50;99.90;;;;;;5052502;28;20090;-78
2023/01/08 05:42:39;;;;;;;;;;;7.60;99.90;;;;;;5052508;28;20400;-78
2023/01/08 05:45:05;;;;;;;;;;;7.60;99.90;;;;;;5052796;28;19932;-79
2023/01/08 05:47:32;;;;;;;;;;;7.60;99.90;;;;;;5052750;28;19915;-78
2023/01/08 05:49:58;;;;;;;;;;;7.60;99.90;;;;;;5052689;28;20665;-79
2023/01/08 05:52:23;;;;;;;;;;;7.60;99.90;;;;;;5051075;28;19999;-79
2023/01/08 05:54:49;;;;;;;;;;;7.60;99.90;;;;;;5051952;28;19909;-79
2023/01/08 05:57:15;;;;;;;;;;;7.50;99.90;;;;;;5051161;28;19912;-78
2023/01/08 05:59:40;;;;;;;;;;;7.50;99.90;;;;;;5052003;28;19935;-79
2023/01/08 06:02:06;;;;;;;;;;;7.50;99.90;;;;;;5052419;28;19912;-79
2023/01/08 06:04:32;;;;;;;;;;;7.50;99.90;;;;;;5052259;28;20000;-78
2023/01/08 06:06:57;;;;;;;;;;;7.50;99.90;;;;;;5051725;28;20594;-78
2023/01/08 06:09:23;;;;;;;;;;;7.50;99.90;;;;;;5052488;28;19977;-79
2023/01/08 06:11:49;;;;;;;;;;;7.40;99.90;;;;;;5052359;28;19916;-79
2023/01/08 06:14:15;;;;;;;;;;;7.40;99.90;;;;;;5052782;28;20276;-79
2023/01/08 06:16:42;;;;;;;;;;;7.40;99.90;;;;;;5052385;28;19952;-80
2023/01/08 06:19:08;;;;;;;;;;;7.40;99.90;;;;;;5065630;28;20336;-78
2023/01/08 06:21:34;;;;;;;;;;;7.40;99.90;;;;;;5072311;28;19916;-79
2023/01/08 06:23:59;;;;;;;;;;;7.40;99.90;;;;;;5071930;28;19920;-79
2023/01/08 06:26:25;;;;;;;;;;;7.40;99.90;;;;;;5072584;28;19909;-79
2023/01/08 06:28:50;;;;;;;;;;;7.40;99.90;;;;;;5072103;28;20312;-80
2023/01/08 06:31:16;;;;;;;;;;;7.30;99.90;;;;;;5072419;28;19917;-79
2023/01/08 06:33:42;;;;;;;;;;;7.30;99.90;;;;;;5071994;28;19913;-80
2023/01/08 06:36:07;;;;;;;;;;;7.30;99.90;;;;;;5072361;28;19947;-79
2023/01/08 06:38:34;;;;;;;;;;;7.30;99.90;;;;;;5072447;28;20320;-79
2023/01/08 06:41:07;;;;;;;;;;;7.30;99.90;;;;;;5071695;28;19908;-79
2023/01/08 06:43:33;;;;;;;;;;;7.20;99.90;;;;;;5070971;28;19908;-79
2023/01/08 06:45:59;;;;;;;;;;;7.20;99.90;;;;;;5071947;28;19908;-78
2023/01/08 06:48:24;;;;;;;;;;;7.20;99.90;;;;;;5072361;28;19908;-78
2023/01/08 06:50:50;;;;;;;;;;;7.20;99.90;;;;;;5071983;28;19928;-79
2023/01/08 06:53:16;;;;;;;;;;;7.20;99.90;;;;;;5071773;28;19916;-79
2023/01/08 06:55:41;;;;;;;;;;;7.20;99.90;;;;;;5071471;28;19959;-82
2023/01/08 06:58:08;;;;;;;;;;;7.10;99.90;;;;;;5072034;28;19959;-79
2023/01/08 07:00:34;;;;;;;;;;;7.10;99.90;;;;;;5072007;28;20261;-79
2023/01/08 07:02:59;;;;;;;;;;;7.10;99.90;;;;;;5071634;28;20002;-78
2023/01/08 07:05:25;;;;;;;;;;;7.10;99.90;;;;;;5072603;28;19909;-79
2023/01/08 07:07:50;;;;;;;;;;;7.00;99.90;;;;;;5070739;28;19908;-79
2023/01/08 07:10:16;;;;;;;;;;;7.10;99.90;;;;;;5072348;28;20331;-79
2023/01/08 07:12:42;;;;;;;;;;;7.10;99.90;;;;;;5072361;28;19910;-81
2023/01/08 07:15:07;;;;;;;;;;;7.10;99.90;;;;;;5063939;28;19913;-79
2023/01/08 07:17:33;;;;;;;;;;;7.00;99.90;;;;;;5051841;28;20007;-79
2023/01/08 07:19:59;;;;;;;;;;;7.00;99.90;;;;;;5051682;28;19987;-78
2023/01/08 07:22:24;;;;;;;;;;;7.00;99.90;;;;;;5051913;28;19959;-79
2023/01/08 07:24:50;;;;;;;;;;;7.00;99.90;;;;;;5051163;28;20358;-80
2023/01/08 07:27:16;;;;;;;;;;;7.00;99.90;;;;;;5051470;28;19916;-79
2023/01/08 07:29:42;;;;;;;;;;;6.90;99.90;;;;;;5053458;28;19963;-85
2023/01/08 07:32:07;;;;;;;;;;;6.90;99.90;;;;;;5071231;28;19913;-79
2023/01/08 07:34:33;;;;;;;;;;;6.90;99.90;;;;;;5071102;28;20349;-79
2023/01/08 07:36:59;;;;;;;;;;;6.90;99.90;;;;;;5071138;28;19912;-80
2023/01/08 07:39:25;;;;;;;;;;;6.90;99.90;;;;;;5071418;28;19948;-79
2023/01/08 07:41:50;;;;;;;;;;;6.80;99.90;;;;;;5071426;28;20026;-79
2023/01/08 07:44:16;;;;;;;;;;;6.80;99.90;;;;;;5071324;28;19913;-80
2023/01/08 07:46:41;;;;;;;;;;;6.70;99.90;;;;;;5069360;28;20332;-80
2023/01/08 07:49:07;;;;;;;;;;;6.70;99.90;;;;;;5070412;28;19921;-80
2023/01/08 07:51:33;;;;;;;;;;;6.80;99.90;;;;;;5070402;28;19931;-80
2023/01/08 07:53:59;;;;;;;;;;;6.70;99.90;;;;;;5070034;28;19934;-80
2023/01/08 07:56:24;;;;;;;;;;;6.70;99.90;;;;;;5072132;28;19908;-78
2023/01/08 07:58:50;;;;;;;;;;;6.60;99.90;;;;;;5080672;28;19924;-79
2023/01/08 08:01:16;;;;;;;;;;;6.60;99.90;;;;;;5080583;28;19923;-80
2023/01/08 08:03:41;;;;;;;;;;;6.60;99.90;;;;;;5080573;28;19934;-79
2023/01/08 08:06:07;;;;;;;;;;;6.60;99.90;;;;;;5077957;28;19950;-80
2023/01/08 08:08:33;;;;;;;;;;;6.60;99.90;;;;;;5059977;28;19913;-80
2023/01/08 08:10:58;;;;;;;;;;;6.60;99.90;;;;;;5061573;28;19909;-79
2023/01/08 08:13:24;;;;;;;;;;;6.60;99.90;;;;;;5062173;28;19935;-80
2023/01/08 08:15:50;;;;;;;;;;;6.60;99.90;;;;;;5051115;28;19924;-81
2023/01/08 08:18:15;;;;;;;;;;;6.60;99.90;;;;;;5051681;28;20361;-80
2023/01/08 08:20:41;;;;;;;;;;;6.60;99.90;;;;;;5051608;28;19920;-80
2023/01/08 08:23:13;;;;;;;;;;;6.50;99.90;;;;;;5051394;28;20345;-81
2023/01/08 08:25:40;;;;;;;;;;;6.50;99.90;;;;;;5051367;28;19987;-80
2023/01/08 08:28:05;;;;;;;;;;;6.60;99.90;;;;;;5050654;28;19913;-80
2023/01/08 08:30:32;;;;;;;;;;;6.60;99.90;;;;;;5050884;28;19915;-80
2023/01/08 08:33:02;;;;;;;;;;;6.60;99.90;;;;;;5050425;28;19963;-80
2023/01/08 08:35:27;;;;;;;;;;;6.60;99.90;;;;;;5050769;28;19916;-79
2023/01/08 08:37:54;;;;;;;;;;;6.50;99.90;;;;;;5050162;28;19908;-81
2023/01/08 08:40:20;;;;;;;;;;;6.50;99.90;;;;;;5050811;28;20242;-79
2023/01/08 08:42:45;;;;;;;;;;;6.50;99.90;;;;;;5050179;28;19939;-79
2023/01/08 08:45:11;;;;;;;;;;;6.50;99.90;;;;;;5050320;28;20331;-79
2023/01/08 08:47:36;;;;;;;;;;;6.50;99.90;;;;;;5053202;28;19909;-79
2023/01/08 08:50:03;;;;;;;;;;;6.50;99.90;;;;;;5054326;28;19925;-79
2023/01/08 08:52:29;;;;;;;;;;;6.50;99.90;;;;;;5054314;28;20429;-79
2023/01/08 08:54:55;;;;;;;;;;;6.40;99.90;;;;;;5054405;28;19915;-81
2023/01/08 08:57:22;;;;;;;;;;;6.40;99.90;;;;;;5054388;28;19912;-79
2023/01/08 08:59:47;;;;;;;;;;;6.40;99.90;;;;;;5054007;28;19913;-83
2023/01/08 09:02:13;;;;;;;;;;;6.40;99.90;;;;;;5053759;28;19932;-79
2023/01/08 09:04:38;;;;;;;;;;;6.30;99.90;;;;;;5053578;28;19962;-80
2023/01/08 09:07:04;;;;;;;;;;;6.30;99.90;;;;;;5052537;28;20370;-80
2023/01/08 09:09:29;;;;;;;;;;;6.30;99.90;;;;;;5053071;28;20318;-79
2023/01/08 09:11:55;;;;;;;;;;;6.30;99.90;;;;;;5051972;28;19908;-80
2023/01/08 09:14:21;;;;;;;;;;;6.30;99.90;;;;;;5061885;28;19913;-79
2023/01/08 09:16:46;;;;;;;;;;;6.30;99.90;;;;;;5062074;28;19924;-79
2023/01/08 09:19:12;;;;;;;;;;;6.30;99.90;;;;;;5062366;28;19967;-76
2023/01/08 09:21:37;;;;;;;;;;;6.20;99.90;;;;;;5065226;28;19920;-80
2023/01/08 09:24:03;;;;;;;;;;;6.20;99.90;;;;;;5058135;28;20004;-79
2023/01/08 09:26:29;;;;;;;;;;;6.20;99.90;;;;;;5053050;28;19963;-79
2023/01/08 09:28:56;;;;;;;;;;;6.20;99.90;;;;;;5052636;28;19923;-80
2023/01/08 09:31:22;;;;;;;;;;;6.10;99.90;;;;;;5061074;28;20100;-79
2023/01/08 09:33:48;;;;;;;;;;;6.10;99.90;;;;;;5062543;28;20399;-76
2023/01/08 09:36:13;;;;;;;;;;;6.10;99.90;;;;;;5063042;28;19966;-76
2023/01/08 09:38:39;;;;;;;;;;;6.10;99.90;;;;;;5072037;28;19912;-78
2023/01/08 09:41:07;;;;;;;;;;;6.10;99.90;;;;;;5072180;28;19978;-76
2023/01/08 09:43:35;;;;;;;;;;;6.00;99.90;;;;;;5072930;28;20009;-76
2023/01/08 09:46:02;;;;;;;;;;;6.00;99.90;;;;;;5070783;28;20287;-76
2023/01/08 09:48:29;;;;;;;;;;;6.00;99.90;;;;;;5072371;28;20218;-76
2023/01/08 09:50:55;;;;;;;;;;;6.00;99.90;;;;;;5071939;28;19920;-77
2023/01/08 09:53:21;;;;;;;;;;;5.90;99.90;;;;;;5071584;28;20010;-76
2023/01/08 09:55:50;;;;;;;;;;;5.90;99.90;;;;;;5068756;28;19913;-77
2023/01/08 09:58:51;;;;;;;;;;;6.00;99.90;;;;;;5054406;28;20007;-77
2023/01/08 10:01:19;;;;;;;;;;;5.90;99.90;;;;;;5029917;28;19928;-79
2023/01/08 10:03:44;;;;;;;;;;;5.90;99.90;;;;;;5048235;28;19912;-79
2023/01/08 10:06:10;;;;;;;;;;;6.00;99.90;;;;;;5052363;28;19968;-79
2023/01/08 10:08:36;;;;;;;;;;;6.00;99.90;;;;;;5060384;28;19923;-79
2023/01/08 10:11:02;;;;;;;;;;;6.00;99.90;;;;;;5062806;28;19992;-80
2023/01/08 10:13:28;;;;;;;;;;;6.00;99.90;;;;;;5057617;28;19909;-80
2023/01/08 10:15:54;;;;;;;;;;;6.00;99.90;;;;;;5051996;28;20346;-83
2023/01/08 10:18:22;;;;;;;;;;;6.00;99.90;;;;;;5052590;28;19960;-79
2023/01/08 10:20:47;;;;;;;;;;;6.00;99.90;;;;;;5052369;28;19996;-80
2023/01/08 10:23:15;;;;;;;;;;;6.00;99.90;;;;;;5052279;28;19948;-80
2023/01/08 10:25:48;;;;;;;;;;;6.00;99.90;;;;;;5052728;28;19920;-79
2023/01/08 10:28:18;;;;;;;;;;;6.00;99.90;;;;;;5051891;28;19909;-80
2023/01/08 10:30:43;;;;;;;;;;;6.10;99.90;;;;;;5060799;28;20004;-80
2023/01/08 10:33:10;;;;;;;;;;;6.10;99.90;;;;;;5071117;28;20140;-80
2023/01/08 10:35:37;;;;;;;;;;;6.10;99.90;;;;;;5071948;28;19916;-80
2023/01/08 10:38:03;;;;;;;;;;;6.10;99.90;;;;;;5071616;28;20023;-80
2023/01/08 10:40:46;;;;;;;;;;;6.10;99.90;;;;;;5072201;28;19978;-79
2023/01/08 10:43:16;;;;;;;;;;;6.10;99.90;;;;;;5071663;28;19916;-80
2023/01/08 10:45:43;;;;;;;;;;;6.10;99.90;;;;;;5071467;28;20285;-80
2023/01/08 10:48:15;;;;;;;;;;;6.20;99.90;;;;;;5071101;28;20341;-80
2023/01/08 10:50:41;;;;;;;;;;;6.20;99.90;;;;;;5071563;28;20318;-80
2023/01/08 10:53:21;;;;;;;;;;;6.20;99.90;;;;;;5070962;28;19909;-80
2023/01/08 10:55:55;;;;;;;;;;;6.30;99.90;;;;;;5071778;28;20298;-80
2023/01/08 10:58:21;;;;;;;;;;;6.40;99.90;;;;;;5071235;28;19928;-80
2023/01/08 11:00:47;;;;;;;;;;;6.40;99.90;;;;;;5071698;28;19923;-79
2023/01/08 11:03:30;;;;;;;;;;;6.40;99.90;;;;;;5071129;28;19916;-80
2023/01/08 11:05:55;;;;;;;;;;;6.40;99.90;;;;;;5070656;28;19916;-80
2023/01/08 11:08:21;;;;;;;;;;;6.40;99.90;;;;;;5070382;28;19982;-80
2023/01/08 11:10:54;;;;;;;;;;;6.50;99.90;;;;;;5070819;28;20392;-80
2023/01/08 11:13:19;;;;;;;;;;;6.50;99.90;;;;;;5070595;28;20343;-80
2023/01/08 11:15:45;;;;;;;;;;;6.50;99.90;;;;;;5071457;28;19951;-79
2023/01/08 11:18:21;;;;;;;;;;;6.60;99.90;;;;;;5070883;28;20008;-80
2023/01/08 11:20:48;;;;;;;;;;;6.70;99.90;;;;;;5071874;28;19962;-79
2023/01/08 11:23:16;;;;;;;;;;;6.70;99.90;;;;;;5071106;28;20012;-80
2023/01/08 11:25:44;;;;;;;;;;;6.80;99.90;;;;;;5071365;28;19909;-79
2023/01/08 11:28:14;;;;;;;;;;;6.80;99.90;;;;;;5070838;28;19912;-79
2023/01/08 11:30:43;;;;;;;;;;;6.80;99.90;;;;;;5071279;28;19908;-79
2023/01/08 11:33:11;;;;;;;;;;;6.90;99.90;;;;;;5070349;28;20405;-80
2023/01/08 11:35:36;;;;;;;;;;;6.90;99.90;;;;;;5070850;28;20233;-79
2023/01/08 11:38:02;;;;;;;;;;;6.90;99.90;;;;;;5070879;28;19995;-80
2023/01/08 11:40:33;;;;;;;;;;;6.90;99.90;;;;;;5069664;28;19935;-79
2023/01/08 11:43:02;;;;;;;;;;;7.00;99.90;;;;;;5058029;28;19913;-83
2023/01/08 11:45:37;;;;;;;;;;;7.00;99.90;;;;;;5050725;28;20254;-80
2023/01/08 11:48:15;;;;;;;;;;;7.10;99.90;;;;;;5050635;28;19946;-80
2023/01/08 11:50:58;;;;;;;;;;;7.10;99.90;;;;;;5051574;28;19963;-79
2023/01/08 11:53:28;;;;;;;;;;;7.10;99.90;;;;;;5050439;28;19908;-80
2023/01/08 11:56:00;;;;;;;;;;;7.10;99.90;;;;;;5051258;28;19909;-79
2023/01/08 11:58:31;;;;;;;;;;;7.10;99.90;;;;;;5050317;28;19913;-79
2023/01/08 12:01:15;;;;;;;;;;;7.10;99.90;;;;;;5050530;28;20267;-79
2023/01/08 12:03:43;;;;;;;;;;;7.10;99.90;;;;;;5050753;28;20338;-79
2023/01/08 12:06:15;;;;;;;;;;;7.20;99.90;;;;;;5049836;28;20293;-79
2023/01/08 12:08:49;;;;;;;;;;;7.10;99.90;;;;;;5050761;28;19921;-79
2023/01/08 12:11:19;;;;;;;;;;;7.10;99.90;;;;;;5050377;28;19916;-79
2023/01/08 12:13:50;;;;;;;;;;;7.10;99.90;;;;;;5050701;28;19909;-79
2023/01/08 12:16:15;;;;;;;;;;;7.20;99.90;;;;;;5050427;28;19909;-80
2023/01/08 12:19:01;;;;;;;;;;;7.10;99.90;;;;;;5060804;28;20318;-79
2023/01/08 12:22:02;;;;;;;;;;;7.10;99.90;;;;;;5073097;28;19919;-79
2023/01/08 12:24:30;;;;;;;;;;;7.10;99.90;;;;;;5012521;28;19909;-79
2023/01/08 12:27:20;;;;;;;;;;;7.00;99.90;;;;;;5062486;28;20392;-79
2023/01/08 12:29:52;;;;;;;;;;;7.00;99.90;;;;;;5074991;28;19971;-79
2023/01/08 12:32:23;;;;;;;;;;;7.10;99.90;;;;;;5074072;28;19908;-79
2023/01/08 12:34:56;;;;;;;;;;;7.00;99.90;;;;;;5074382;28;19924;-79
2023/01/08 12:37:26;;;;;;;;;;;7.00;99.90;;;;;;5074057;28;19908;-79
2023/01/08 12:40:11;;;;;;;;;;;7.00;99.90;;;;;;5074392;28;19944;-79
2023/01/08 12:42:40;;;;;;;;;;;7.00;99.90;;;;;;5022220;28;19916;-79
2023/01/08 12:45:11;;;;;;;;;;;7.00;99.90;;;;;;5073559;28;20249;-82
2023/01/08 12:47:37;;;;;;;;;;;7.10;99.90;;;;;;5066583;28;19913;-79
2023/01/08 12:50:09;;;;;;;;;;;7.10;99.90;;;;;;5067990;28;19927;-79
2023/01/08 12:52:55;;;;;;;;;;;7.10;99.90;;;;;;5054307;28;20030;-79
2023/01/08 12:55:32;;;;;;;;;;;7.10;99.90;;;;;;5055438;28;19917;-78
2023/01/08 12:58:17;;;;;;;;;;;7.10;99.90;;;;;;5053737;28;19916;-79
2023/01/08 13:01:05;;;;;;;;;;;7.20;99.90;;;;;;5057289;28;20323;-78
2023/01/08 13:03:31;;;;;;;;;;;7.20;99.90;;;;;;5087805;28;19913;-79
2023/01/08 13:06:05;;;;;;;;;;;7.20;99.90;;;;;;5064565;28;19978;-78
2023/01/08 13:08:33;;;;;;;;;;;7.30;99.90;;;;;;5064350;28;19913;-78
2023/01/08 13:10:59;;;;;;;;;;;7.30;99.90;;;;;;5062514;28;19916;-78
2023/01/08 13:13:29;;;;;;;;;;;7.30;99.90;;;;;;5061184;28;19909;-79
2023/01/08 13:16:24;;;;;;;;;;;7.40;99.90;;;;;;5056487;28;19908;-77
2023/01/08 13:18:57;;;;;;;;;;;7.50;99.90;;;;;;5047430;28;19913;-78
2023/01/08 13:21:28;;;;;;;;;;;7.50;99.90;;;;;;5064669;28;19917;-78
2023/01/08 13:24:02;;;;;;;;;;;7.50;99.90;;;;;;5063436;28;19909;-79
2023/01/08 13:26:34;;;;;;;;;;;7.50;99.90;;;;;;5063670;28;19916;-79
2023/01/08 13:29:06;;;;;;;;;;;7.60;99.90;;;;;;5062644;28;19916;-79
2023/01/08 13:31:38;;;;;;;;;;;7.60;99.90;;;;;;5065995;28;19951;-79
2023/01/08 13:34:17;;;;;;;;;;;7.70;99.90;;;;;;5060004;28;19915;-80
2023/01/08 13:36:53;;;;;;;;;;;7.80;99.90;;;;;;5066158;28;19921;-79
2023/01/08 13:39:22;;;;;;;;;;;7.80;99.90;;;;;;5065756;28;20247;-78
2023/01/08 13:42:16;;;;;;;;;;;7.90;99.90;;;;;;5072020;28;19919;-80
2023/01/08 13:44:47;;;;;;;;;;;7.90;99.90;;;;;;5073394;28;20281;-80
2023/01/08 13:47:23;;;;;;;;;;;7.90;99.90;;;;;;5074691;28;19916;-80
2023/01/08 13:49:51;;;;;;;;;;;7.90;99.90;;;;;;5074252;28;20394;-80
2023/01/08 13:52:35;;;;;;;;;;;7.90;99.90;;;;;;5056422;28;20366;-79
2023/01/08 13:55:03;;;;;;;;;;;7.90;99.90;;;;;;5054363;28;19916;-79
2023/01/08 13:57:40;;;;;;;;;;;7.90;99.90;;;;;;5053757;28;19954;-80
2023/01/08 14:00:08;;;;;;;;;;;8.00;99.90;;;;;;5053611;28;20335;-79
2023/01/08 14:02:48;;;;;;;;;;;8.00;99.90;;;;;;5053180;28;20269;-79
2023/01/08 14:05:18;;;;;;;;;;;8.00;99.90;;;;;;5071924;28;19908;-84
2023/01/08 14:07:43;;;;;;;;;;;8.10;99.90;;;;;;5075685;28;19988;-78
2023/01/08 14:10:11;;;;;;;;;;;8.10;99.90;;;;;;5073212;28;19909;-83
2023/01/08 14:12:36;;;;;;;;;;;8.10;99.90;;;;;;5076399;28;19912;-78
2023/01/08 14:15:05;;;;;;;;;;;8.10;99.90;;;;;;5076226;28;19932;-79
2023/01/08 14:17:31;;;;;;;;;;;8.10;99.90;;;;;;5076237;28;19924;-78
2023/01/08 14:19:57;;;;;;;;;;;8.20;99.90;;;;;;5074855;28;19979;-78
2023/01/08 14:22:26;;;;;;;;;;;8.20;99.90;;;;;;5075427;28;19901;-85
2023/01/08 14:24:55;;;;;;;;;;;8.20;99.90;;;;;;5083122;28;19905;-80
2023/01/08 14:27:22;;;;;;;;;;;8.20;99.90;;;;;;5073772;28;19917;-80
2023/01/08 14:29:48;;;;;;;;;;;8.30;99.90;;;;;;5064075;28;19920;-80
2023/01/08 14:32:15;;;;;;;;;;;8.30;99.90;;;;;;5062263;28;19908;-84
2023/01/08 14:34:41;;;;;;;;;;;8.30;99.90;;;;;;5078744;28;19927;-80
2023/01/08 14:37:11;;;;;;;;;;;8.30;99.90;;;;;;5078835;28;20024;-79